Wagarville, Alabama
Current Conditions -  °F | °C
As of 1:56 AM on Sunday 23 Nov 2014 (Local Time) from KMOB Reporting Station
Haze Haze  
Wind Chill: 62°   Ceiling: 400
Heat Index: 62°   Visibility: 4mi
Dew Point: 62°   Wind: 10mph
Humidity: 100%   Direction: 80°E
Pressure: 29.88"   Gusts: NA
Location:  31.44°N, 88.03°W
Report Text: KMOB 230756Z AUTO 08009KT 4SM BR OVC004 17/17 A2988 RMK AO2 SLP115 T01670167
Loading
Personal Weather Stations






























Interactive Weather Map New forecast layout! Learn more

10-Day Weather Forecast

Advertisements
Track Severe Weather on mobile